createdAt,value
2023-05-17T00:00:25.485Z,24.46
2023-05-17T00:01:25.543Z,24.45
2023-05-17T00:02:25.631Z,24.45
2023-05-17T00:03:25.640Z,24.46
2023-05-17T00:04:25.732Z,24.45
2023-05-17T00:05:25.841Z,24.45
2023-05-17T00:06:25.855Z,24.46
2023-05-17T00:07:25.838Z,24.46
2023-05-17T00:08:25.888Z,24.46
2023-05-17T00:09:25.941Z,24.46
2023-05-17T00:10:25.979Z,24.46
2023-05-17T00:11:26.038Z,24.46
2023-05-17T00:12:26.184Z,24.45
2023-05-17T00:13:26.203Z,24.43
2023-05-17T00:14:26.196Z,24.43
2023-05-17T00:15:26.406Z,24.43
2023-05-17T00:16:26.312Z,24.43
2023-05-17T00:17:26.361Z,24.42
2023-05-17T00:18:26.576Z,24.45
2023-05-17T00:19:26.487Z,24.43
2023-05-17T00:20:26.519Z,24.45
2023-05-17T00:21:26.553Z,24.45
2023-05-17T00:22:26.648Z,24.43
2023-05-17T00:23:26.677Z,24.45
2023-05-17T00:24:26.725Z,24.42
2023-05-17T00:25:26.917Z,24.45
2023-05-17T00:26:26.818Z,24.45
2023-05-17T00:27:26.927Z,24.43
2023-05-17T00:28:26.945Z,24.43
2023-05-17T00:29:27.045Z,24.43
2023-05-17T00:30:27.039Z,24.45
2023-05-17T00:31:27.085Z,24.42
2023-05-17T00:32:27.202Z,24.42
2023-05-17T00:33:27.186Z,24.43
2023-05-17T00:34:27.247Z,24.45
2023-05-17T00:35:27.647Z,24.40
2023-05-17T00:36:27.332Z,24.43
2023-05-17T00:37:27.385Z,24.42
2023-05-17T00:38:27.454Z,24.42
2023-05-17T00:39:27.489Z,24.42
2023-05-17T00:40:27.549Z,24.42
2023-05-17T00:41:27.621Z,24.45
2023-05-17T00:42:27.652Z,24.40
2023-05-17T00:43:27.712Z,24.42
2023-05-17T00:44:27.771Z,24.43
2023-05-17T00:45:28.031Z,24.40
2023-05-17T00:46:27.876Z,24.43
2023-05-17T00:47:28.151Z,24.40
2023-05-17T00:48:28.066Z,24.40
2023-05-17T00:49:28.032Z,24.40
2023-05-17T00:50:28.102Z,24.42
2023-05-17T00:51:28.141Z,24.43
2023-05-17T00:52:28.175Z,24.40
2023-05-17T00:53:28.238Z,24.42
2023-05-17T00:54:28.272Z,24.43
2023-05-17T00:55:28.560Z,24.40
2023-05-17T00:56:28.383Z,24.43
2023-05-17T00:57:28.428Z,24.42
2023-05-17T00:58:28.553Z,24.42
2023-05-17T00:59:28.535Z,24.40
2023-05-17T01:00:28.591Z,24.43
2023-05-17T01:01:28.705Z,24.40
2023-05-17T01:02:28.931Z,24.40
2023-05-17T01:03:28.843Z,24.42
2023-05-17T01:04:28.816Z,24.40
2023-05-17T01:05:29.255Z,24.40
2023-05-17T01:06:28.929Z,24.39
2023-05-17T01:07:28.994Z,24.42
2023-05-17T01:08:29.051Z,24.42
2023-05-17T01:09:29.087Z,24.40
2023-05-17T01:10:29.147Z,24.42
2023-05-17T01:11:29.205Z,24.39
2023-05-17T01:12:29.245Z,24.40
2023-05-17T01:13:29.309Z,24.39
2023-05-17T01:14:29.371Z,24.39
2023-05-17T01:15:29.611Z,24.39
2023-05-17T01:16:29.448Z,24.38
2023-05-17T01:17:29.676Z,24.38
2023-05-17T01:18:29.656Z,24.39
2023-05-17T01:19:29.700Z,24.39
2023-05-17T01:20:29.810Z,24.38
2023-05-17T01:21:29.727Z,24.39
2023-05-17T01:22:29.802Z,24.39
2023-05-17T01:23:29.845Z,24.40
2023-05-17T01:24:29.893Z,24.38
2023-05-17T01:25:30.117Z,24.39
2023-05-17T01:26:30.013Z,24.38
2023-05-17T01:27:30.083Z,24.38
2023-05-17T01:28:30.138Z,24.38
2023-05-17T01:29:30.173Z,24.39
2023-05-17T01:30:30.249Z,24.36
2023-05-17T01:31:30.289Z,24.36
2023-05-17T01:32:30.381Z,24.38
2023-05-17T01:33:30.705Z,24.36
2023-05-17T01:34:30.495Z,24.36
2023-05-17T01:35:30.739Z,24.36
2023-05-17T01:36:30.570Z,24.35
2023-05-17T01:37:30.637Z,24.36
2023-05-17T01:38:30.688Z,24.38
2023-05-17T01:39:30.727Z,24.35
2023-05-17T01:40:30.795Z,24.36
2023-05-17T01:41:30.859Z,24.35
2023-05-17T01:42:30.913Z,24.35
2023-05-17T01:43:30.951Z,24.35
2023-05-17T01:44:33.043Z,24.35
2023-05-17T01:45:31.046Z,24.35
2023-05-17T01:46:31.107Z,24.35
2023-05-17T01:47:31.236Z,24.35
2023-05-17T01:48:31.246Z,24.36
2023-05-17T01:49:31.275Z,24.34
2023-05-17T01:50:31.325Z,24.35
2023-05-17T01:51:31.380Z,24.35
2023-05-17T01:52:31.443Z,24.36
2023-05-17T01:53:31.500Z,24.34
2023-05-17T01:54:31.590Z,24.34
2023-05-17T01:55:31.612Z,24.35
2023-05-17T01:56:31.696Z,24.34
2023-05-17T01:57:31.765Z,24.35
2023-05-17T01:58:31.809Z,24.35
2023-05-17T01:59:31.884Z,24.35
2023-05-17T02:00:31.949Z,24.35
2023-05-17T02:01:31.964Z,24.35
2023-05-17T02:02:32.089Z,24.35
2023-05-17T02:03:32.109Z,24.34
2023-05-17T02:04:32.199Z,24.34
2023-05-17T02:05:32.292Z,24.34
2023-05-17T02:06:32.326Z,24.34
2023-05-17T02:07:32.339Z,24.35
2023-05-17T02:08:32.378Z,24.34
2023-05-17T02:09:32.448Z,24.34
2023-05-17T02:10:32.504Z,24.32
2023-05-17T02:11:32.548Z,24.32
2023-05-17T02:12:32.613Z,24.32
2023-05-17T02:13:32.681Z,24.31
2023-05-17T02:14:32.735Z,24.35
2023-05-17T02:15:32.808Z,24.32
2023-05-17T02:16:32.868Z,24.32
2023-05-17T02:17:32.968Z,24.32
2023-05-17T02:18:33.040Z,24.32
2023-05-17T02:19:33.038Z,24.32
2023-05-17T02:20:33.092Z,24.31
2023-05-17T02:21:33.205Z,24.34
2023-05-17T02:22:33.241Z,24.34
2023-05-17T02:23:33.256Z,24.32
2023-05-17T02:24:33.320Z,24.31
2023-05-17T02:25:33.373Z,24.31
2023-05-17T02:26:33.417Z,24.29
2023-05-17T02:27:33.478Z,24.31
2023-05-17T02:28:33.511Z,24.32
2023-05-17T02:29:33.578Z,24.31
2023-05-17T02:30:33.645Z,24.31
2023-05-17T02:31:33.701Z,24.32
2023-05-17T02:32:33.854Z,24.32
2023-05-17T02:33:33.840Z,24.32
2023-05-17T02:34:33.860Z,24.31
2023-05-17T02:35:33.937Z,24.29
2023-05-17T02:36:33.969Z,24.31
2023-05-17T02:37:34.172Z,24.28
2023-05-17T02:38:34.103Z,24.28
2023-05-17T02:39:34.157Z,24.32
2023-05-17T02:40:34.216Z,24.29
2023-05-17T02:41:34.282Z,24.28
2023-05-17T02:42:34.410Z,24.31
2023-05-17T02:43:34.391Z,24.31
2023-05-17T02:44:34.445Z,24.29
2023-05-17T02:45:34.490Z,24.28
2023-05-17T02:46:35.246Z,24.28
2023-05-17T02:47:34.722Z,24.29
2023-05-17T02:48:34.675Z,24.29
2023-05-17T02:49:34.719Z,24.29
2023-05-17T02:50:34.774Z,24.31
2023-05-17T02:51:34.850Z,24.28
2023-05-17T02:52:34.904Z,24.29
2023-05-17T02:53:35.000Z,24.29
2023-05-17T02:54:34.982Z,24.29
2023-05-17T02:55:35.069Z,24.29
2023-05-17T02:56:35.095Z,24.29
2023-05-17T02:57:35.156Z,24.28
2023-05-17T02:58:35.175Z,24.28
2023-05-17T02:59:35.243Z,24.28
2023-05-17T03:00:35.281Z,24.29
2023-05-17T03:01:35.326Z,24.27
2023-05-17T03:02:35.487Z,24.28
2023-05-17T03:03:35.632Z,24.31
2023-05-17T03:04:35.562Z,24.27
2023-05-17T03:05:35.592Z,24.29
2023-05-17T03:06:35.624Z,24.27
2023-05-17T03:07:35.673Z,24.28
2023-05-17T03:08:35.730Z,24.29
2023-05-17T03:09:35.818Z,24.27
2023-05-17T03:10:35.789Z,24.28
2023-05-17T03:11:35.849Z,24.27
2023-05-17T03:12:35.887Z,24.28
2023-05-17T03:13:35.950Z,24.27
2023-05-17T03:14:35.979Z,24.28
2023-05-17T03:15:36.027Z,24.28
2023-05-17T03:16:36.069Z,24.27
2023-05-17T03:17:36.192Z,24.28
2023-05-17T03:18:36.313Z,24.28
2023-05-17T03:19:36.239Z,24.27
2023-05-17T03:20:36.274Z,24.28
2023-05-17T03:21:36.338Z,24.27
2023-05-17T03:22:36.416Z,24.27
2023-05-17T03:23:36.436Z,24.25
2023-05-17T03:24:36.475Z,24.27
2023-05-17T03:25:36.575Z,24.24
2023-05-17T03:26:36.564Z,24.25
2023-05-17T03:27:36.664Z,24.25
2023-05-17T03:28:36.625Z,24.25
2023-05-17T03:29:36.694Z,24.27
2023-05-17T03:30:36.803Z,24.27
2023-05-17T03:31:36.784Z,24.25
2023-05-17T03:32:36.908Z,24.25
2023-05-17T03:33:36.920Z,24.27
2023-05-17T03:34:36.945Z,24.27
2023-05-17T03:35:36.964Z,24.24
2023-05-17T03:36:37.010Z,24.24
2023-05-17T03:37:37.062Z,24.27
2023-05-17T03:38:37.108Z,24.25
2023-05-17T03:39:37.174Z,24.24
2023-05-17T03:40:37.247Z,24.25
2023-05-17T03:41:37.377Z,24.27
2023-05-17T03:42:37.330Z,24.25
2023-05-17T03:43:37.366Z,24.24
2023-05-17T03:44:37.412Z,24.24
2023-05-17T03:45:37.496Z,24.24
2023-05-17T03:46:37.519Z,24.27
2023-05-17T03:47:37.714Z,24.25
2023-05-17T03:48:37.705Z,24.28
2023-05-17T03:49:37.699Z,24.27
2023-05-17T03:50:37.788Z,24.25
2023-05-17T03:51:37.829Z,24.24
2023-05-17T03:52:37.856Z,24.24
2023-05-17T03:53:37.932Z,24.25
2023-05-17T03:54:37.960Z,24.24
2023-05-17T03:55:38.005Z,24.25
2023-05-17T03:56:38.051Z,24.25
2023-05-17T03:57:38.221Z,24.27
2023-05-17T03:58:38.161Z,24.27
2023-05-17T03:59:38.180Z,24.25
2023-05-17T04:00:38.241Z,24.27
2023-05-17T04:01:38.321Z,24.25
2023-05-17T04:02:38.352Z,24.25
2023-05-17T04:03:38.454Z,24.27
2023-05-17T04:04:38.413Z,24.22
2023-05-17T04:05:38.483Z,24.27
2023-05-17T04:06:38.497Z,24.24
2023-05-17T04:07:38.526Z,24.27
2023-05-17T04:08:38.552Z,24.25
2023-05-17T04:09:38.613Z,24.27
2023-05-17T04:10:38.632Z,24.24
2023-05-17T04:11:38.666Z,24.25
2023-05-17T04:12:38.723Z,24.25
2023-05-17T04:13:38.872Z,24.25
2023-05-17T04:14:38.883Z,24.24
2023-05-17T04:15:38.844Z,24.24
2023-05-17T04:16:38.915Z,24.25
2023-05-17T04:17:38.951Z,24.24
2023-05-17T04:18:39.249Z,24.27
2023-05-17T04:19:39.019Z,24.25
2023-05-17T04:20:39.048Z,24.27
2023-05-17T04:21:39.094Z,24.25
2023-05-17T04:22:39.147Z,24.25
2023-05-17T04:23:39.208Z,24.24
2023-05-17T04:24:39.230Z,24.25
2023-05-17T04:25:39.318Z,24.24
2023-05-17T04:26:39.358Z,24.27
2023-05-17T04:27:39.432Z,24.27
2023-05-17T04:28:39.494Z,24.24
2023-05-17T04:29:39.681Z,24.25
2023-05-17T04:30:39.587Z,24.27
2023-05-17T04:31:39.641Z,24.25
2023-05-17T04:32:39.747Z,24.27
2023-05-17T04:33:39.761Z,24.28
2023-05-17T04:34:39.823Z,24.28
2023-05-17T04:35:39.847Z,24.28
2023-05-17T04:36:39.898Z,24.28
2023-05-17T04:37:39.940Z,24.28
2023-05-17T04:38:40.054Z,24.28
2023-05-17T04:39:40.054Z,24.28
2023-05-17T04:40:40.110Z,24.29
2023-05-17T04:41:40.150Z,24.29
2023-05-17T04:42:40.236Z,24.28
2023-05-17T04:43:40.272Z,24.27
2023-05-17T04:44:40.334Z,24.28
2023-05-17T04:45:40.516Z,24.29
2023-05-17T04:46:40.421Z,24.29
2023-05-17T04:47:40.577Z,24.28
2023-05-17T04:48:40.623Z,24.32
2023-05-17T04:49:40.575Z,24.31
2023-05-17T04:50:40.640Z,24.31
2023-05-17T04:51:40.677Z,24.31
2023-05-17T04:52:40.726Z,24.32
2023-05-17T04:53:40.805Z,24.29
2023-05-17T04:54:40.842Z,24.31
2023-05-17T04:55:40.913Z,24.31
2023-05-17T04:56:40.968Z,24.29
2023-05-17T04:57:41.024Z,24.31
2023-05-17T04:58:41.070Z,24.31
2023-05-17T04:59:41.114Z,24.31
2023-05-17T05:00:41.151Z,24.32
2023-05-17T05:01:41.217Z,24.29
2023-05-17T05:02:41.280Z,24.34
2023-05-17T05:03:41.329Z,24.29
2023-05-17T05:04:41.386Z,24.29
2023-05-17T05:05:41.380Z,24.31
2023-05-17T05:06:41.421Z,24.28
2023-05-17T05:07:41.474Z,24.31
2023-05-17T05:08:41.610Z,24.31
2023-05-17T05:09:41.528Z,24.29
2023-05-17T05:10:41.584Z,24.31
2023-05-17T05:11:41.632Z,24.28
2023-05-17T05:12:41.677Z,24.29
2023-05-17T05:13:41.772Z,24.31
2023-05-17T05:14:41.771Z,24.31
2023-05-17T05:15:41.804Z,24.32
2023-05-17T05:16:41.856Z,24.31
2023-05-17T05:17:42.142Z,24.29
2023-05-17T05:18:42.043Z,24.31
2023-05-17T05:19:42.094Z,24.29
2023-05-17T05:20:42.034Z,24.29
2023-05-17T05:21:42.090Z,24.28
2023-05-17T05:22:42.086Z,24.32
2023-05-17T05:23:42.133Z,24.29
2023-05-17T05:24:42.158Z,24.32
2023-05-17T05:25:42.185Z,24.29
2023-05-17T05:26:42.191Z,24.32
2023-05-17T05:27:42.446Z,24.31
2023-05-17T05:28:42.271Z,24.36
2023-05-17T05:29:42.318Z,24.34
2023-05-17T05:30:42.370Z,24.36
2023-05-17T05:31:42.460Z,24.38
2023-05-17T05:32:42.570Z,24.38
2023-05-17T05:33:42.786Z,24.40
2023-05-17T05:34:42.600Z,24.42
2023-05-17T05:35:42.661Z,24.40
2023-05-17T05:36:42.754Z,24.45
2023-05-17T05:37:42.778Z,24.45
2023-05-17T05:38:42.836Z,24.49
2023-05-17T05:39:42.885Z,24.55
2023-05-17T05:40:42.968Z,24.54
2023-05-17T05:41:43.024Z,24.56
2023-05-17T05:42:43.082Z,24.59
2023-05-17T05:43:43.111Z,24.62
2023-05-17T05:44:43.203Z,24.66
2023-05-17T05:45:43.172Z,24.65
2023-05-17T05:46:43.231Z,24.67
2023-05-17T05:47:43.373Z,24.69
2023-05-17T05:48:43.458Z,24.70
2023-05-17T05:49:43.370Z,24.75
2023-05-17T05:50:43.389Z,24.75
2023-05-17T05:51:43.433Z,24.80
2023-05-17T05:52:43.485Z,24.82
2023-05-17T05:53:43.523Z,24.83
2023-05-17T05:54:43.545Z,24.87
2023-05-17T05:55:43.615Z,24.87
2023-05-17T05:56:43.617Z,24.91
2023-05-17T05:57:43.667Z,24.90
2023-05-17T05:58:43.682Z,24.97
2023-05-17T05:59:43.719Z,24.98
2023-05-17T06:00:43.775Z,25.00
2023-05-17T06:01:43.781Z,25.04
2023-05-17T06:02:43.802Z,25.04
2023-05-17T06:03:43.848Z,25.10
2023-05-17T06:04:45.605Z,25.09
2023-05-17T06:05:44.034Z,25.13
2023-05-17T06:06:44.052Z,25.15
2023-05-17T06:07:43.963Z,25.15
2023-05-17T06:08:43.992Z,25.17
2023-05-17T06:09:44.025Z,25.17
2023-05-17T06:10:44.205Z,25.18
2023-05-17T06:11:44.078Z,25.21
2023-05-17T06:12:44.119Z,25.20
2023-05-17T06:13:44.126Z,25.23
2023-05-17T06:14:44.178Z,25.27
2023-05-17T06:15:44.244Z,25.27
2023-05-17T06:16:44.220Z,25.28
2023-05-17T06:17:44.350Z,25.28
2023-05-17T06:18:44.348Z,25.30
2023-05-17T06:19:44.333Z,25.31
2023-05-17T06:20:44.289Z,25.31
2023-05-17T06:21:44.399Z,25.32
2023-05-17T06:22:44.489Z,25.31
2023-05-17T06:23:44.393Z,25.35
2023-05-17T06:24:44.389Z,25.35
2023-05-17T06:25:44.409Z,25.32
2023-05-17T06:26:44.418Z,25.34
2023-05-17T06:27:44.461Z,25.35
2023-05-17T06:28:44.606Z,25.37
2023-05-17T06:29:44.502Z,25.34
2023-05-17T06:30:44.514Z,25.38
2023-05-17T06:31:44.539Z,25.31
2023-05-17T06:32:44.987Z,25.32
2023-05-17T06:33:44.618Z,25.32
2023-05-17T06:34:46.558Z,25.31
2023-05-17T06:35:56.309Z,25.32
2023-05-17T06:36:45.673Z,25.35
2023-05-17T06:37:44.756Z,25.35
2023-05-17T06:38:44.641Z,25.35
2023-05-17T06:39:47.968Z,25.40
2023-05-17T06:40:45.625Z,25.41
2023-05-17T06:41:44.632Z,25.40
2023-05-17T06:42:44.994Z,25.42
2023-05-17T06:43:44.992Z,25.44
2023-05-17T06:44:44.747Z,25.45
2023-05-17T06:45:44.575Z,25.46
2023-05-17T06:46:44.579Z,25.46
2023-05-17T06:47:44.647Z,25.48
2023-05-17T06:48:44.728Z,25.46
2023-05-17T06:49:44.545Z,25.46
2023-05-17T06:50:44.535Z,25.46
2023-05-17T06:51:44.552Z,25.49
2023-05-17T06:52:44.531Z,25.49
2023-05-17T06:53:44.588Z,25.51
2023-05-17T06:54:44.512Z,25.51
2023-05-17T06:55:44.522Z,25.51
2023-05-17T06:56:44.676Z,25.49
2023-05-17T06:57:44.533Z,25.52
2023-05-17T06:58:44.493Z,25.49
2023-05-17T06:59:44.470Z,25.53
2023-05-17T07:00:44.500Z,25.55
2023-05-17T07:01:44.458Z,25.59
2023-05-17T07:02:44.566Z,25.59
2023-05-17T07:03:44.679Z,25.64
2023-05-17T07:04:44.476Z,25.61
2023-05-17T07:05:44.444Z,25.64
2023-05-17T07:06:44.445Z,25.62
2023-05-17T07:07:44.475Z,25.65
2023-05-17T07:08:44.467Z,25.66
2023-05-17T07:09:44.473Z,25.68
2023-05-17T07:10:44.425Z,25.66
2023-05-17T07:11:44.387Z,25.70
2023-05-17T07:12:44.390Z,25.70
2023-05-17T07:13:44.371Z,25.72
2023-05-17T07:14:44.363Z,25.75
2023-05-17T07:15:44.380Z,25.76
2023-05-17T07:16:44.360Z,25.75
2023-05-17T07:17:44.382Z,25.72
2023-05-17T07:18:44.542Z,25.72
2023-05-17T07:19:44.502Z,25.73
2023-05-17T07:20:44.323Z,25.68
2023-05-17T07:21:44.333Z,25.73
2023-05-17T07:22:44.365Z,25.73
2023-05-17T07:23:44.300Z,25.64
2023-05-17T07:24:44.320Z,25.62
2023-05-17T07:25:44.365Z,25.62
2023-05-17T07:26:44.312Z,25.59
2023-05-17T07:27:44.291Z,25.53
2023-05-17T07:28:44.283Z,25.46
2023-05-17T07:29:44.261Z,25.42
2023-05-17T07:30:44.284Z,25.40
2023-05-17T07:31:44.279Z,25.42
2023-05-17T07:32:44.533Z,25.40
2023-05-17T07:33:44.378Z,25.41
2023-05-17T07:34:44.610Z,25.45
2023-05-17T07:35:44.668Z,25.45
2023-05-17T07:36:44.406Z,25.42
2023-05-17T07:37:44.522Z,25.46
2023-05-17T07:38:44.422Z,25.44
2023-05-17T07:39:44.459Z,25.42
2023-05-17T07:40:44.471Z,25.44
2023-05-17T07:41:44.483Z,25.42
2023-05-17T07:42:44.514Z,25.41
2023-05-17T07:43:44.516Z,25.40
2023-05-17T07:44:44.542Z,25.40
2023-05-17T07:45:44.575Z,25.37
2023-05-17T07:46:44.608Z,25.37
2023-05-17T07:47:44.708Z,25.38
2023-05-17T07:48:44.713Z,25.38
2023-05-17T07:49:44.657Z,25.31
2023-05-17T07:50:44.655Z,25.32
2023-05-17T07:51:44.696Z,25.34
2023-05-17T07:52:45.010Z,25.32
2023-05-17T07:53:44.725Z,25.30
2023-05-17T07:54:44.773Z,25.31
2023-05-17T07:55:47.497Z,25.28
2023-05-17T07:56:44.793Z,25.24
2023-05-17T07:57:44.781Z,25.23
2023-05-17T07:58:44.759Z,25.20
2023-05-17T07:59:44.765Z,25.17
2023-05-17T08:00:44.749Z,25.17
2023-05-17T08:01:44.778Z,25.15
2023-05-17T08:02:45.042Z,25.15
2023-05-17T08:03:44.738Z,25.17
2023-05-17T08:04:44.750Z,25.15
2023-05-17T08:05:44.794Z,25.14
2023-05-17T08:06:44.719Z,25.13
2023-05-17T08:07:45.025Z,25.10
2023-05-17T08:08:44.698Z,25.06
2023-05-17T08:09:44.684Z,25.03
2023-05-17T08:10:44.677Z,25.04
2023-05-17T08:11:44.685Z,25.03
2023-05-17T08:12:44.708Z,25.02
2023-05-17T08:13:44.719Z,25.00
2023-05-17T08:14:44.653Z,25.02
2023-05-17T08:15:44.661Z,25.00
2023-05-17T08:16:44.647Z,25.03
2023-05-17T08:17:44.721Z,25.06
2023-05-17T08:18:44.764Z,25.06
2023-05-17T08:19:44.762Z,25.09
2023-05-17T08:20:44.604Z,25.10
2023-05-17T08:21:44.628Z,25.09
2023-05-17T08:22:45.015Z,25.11
2023-05-17T08:23:44.590Z,25.11
2023-05-17T08:24:44.584Z,25.10
2023-05-17T08:25:45.473Z,25.09
2023-05-17T08:26:44.609Z,25.09
2023-05-17T08:27:44.563Z,25.09
2023-05-17T08:28:44.546Z,25.06
2023-05-17T08:29:44.658Z,25.09
2023-05-17T08:30:44.599Z,25.03
2023-05-17T08:31:44.574Z,25.03
2023-05-17T08:32:45.125Z,25.04
2023-05-17T08:33:45.041Z,24.98
2023-05-17T08:34:44.525Z,24.96
2023-05-17T08:35:44.521Z,24.93
2023-05-17T08:36:44.617Z,24.91
2023-05-17T08:37:44.488Z,24.89
2023-05-17T08:38:44.491Z,24.91
2023-05-17T08:39:44.525Z,24.90
2023-05-17T08:40:44.511Z,24.91
2023-05-17T08:41:44.467Z,24.90
2023-05-17T08:42:44.477Z,24.87
2023-05-17T08:43:44.562Z,24.83
2023-05-17T08:44:44.544Z,24.83
2023-05-17T08:45:44.432Z,24.83
2023-05-17T08:46:44.433Z,24.86
2023-05-17T08:47:44.451Z,24.86
2023-05-17T08:48:44.469Z,24.86
2023-05-17T08:49:46.344Z,24.87
2023-05-17T08:50:44.406Z,24.87
2023-05-17T08:51:44.399Z,24.87
2023-05-17T08:52:44.465Z,24.85
2023-05-17T08:53:44.386Z,24.85
2023-05-17T08:54:44.366Z,24.82
2023-05-17T08:55:44.357Z,24.86
2023-05-17T08:56:44.352Z,24.87
2023-05-17T08:57:44.605Z,24.89
2023-05-17T08:58:56.275Z,24.91
2023-05-17T08:59:45.369Z,24.93
2023-05-17T09:00:44.420Z,24.97
2023-05-17T09:01:44.357Z,25.02
2023-05-17T09:02:44.410Z,25.02
2023-05-17T09:03:44.560Z,25.04
2023-05-17T09:04:44.404Z,25.09
2023-05-17T09:05:44.361Z,25.11
2023-05-17T09:06:44.295Z,25.14
2023-05-17T09:07:44.282Z,25.18
2023-05-17T09:08:44.285Z,25.20
2023-05-17T09:09:44.332Z,25.23
2023-05-17T09:10:44.334Z,25.23
2023-05-17T09:11:44.329Z,25.28
2023-05-17T09:12:44.366Z,25.30
2023-05-17T09:13:44.411Z,25.32
2023-05-17T09:14:44.392Z,25.32
2023-05-17T09:15:44.419Z,25.37
2023-05-17T09:16:44.444Z,25.42
2023-05-17T09:17:44.572Z,25.42
2023-05-17T09:18:44.584Z,25.42
2023-05-17T09:19:44.639Z,25.48
2023-05-17T09:20:44.458Z,25.46
2023-05-17T09:21:44.466Z,25.48
2023-05-17T09:22:44.488Z,25.53
2023-05-17T09:23:48.974Z,25.52
2023-05-17T09:24:45.510Z,25.52
2023-05-17T09:25:44.511Z,25.52
2023-05-17T09:26:44.626Z,25.55
2023-05-17T09:27:44.464Z,25.55
2023-05-17T09:28:44.542Z,25.53
2023-05-17T09:29:44.458Z,25.52
2023-05-17T09:30:44.445Z,25.53
2023-05-17T09:31:44.424Z,25.53
2023-05-17T09:32:44.455Z,25.55
2023-05-17T09:33:44.725Z,25.53
2023-05-17T09:34:44.406Z,25.53
2023-05-17T09:35:44.451Z,25.51
2023-05-17T09:36:44.529Z,25.46
2023-05-17T09:37:44.420Z,25.27
2023-05-17T09:38:44.558Z,25.20
2023-05-17T09:39:44.369Z,25.10
2023-05-17T09:40:44.399Z,25.02
2023-05-17T09:41:44.397Z,25.00
2023-05-17T09:42:44.469Z,24.97
2023-05-17T09:43:44.534Z,24.93
2023-05-17T09:44:44.570Z,24.91
2023-05-17T09:45:44.623Z,24.97
2023-05-17T09:46:44.675Z,24.96
2023-05-17T09:47:44.756Z,25.00
2023-05-17T09:48:44.857Z,25.00
2023-05-17T09:49:44.780Z,25.00
2023-05-17T09:50:44.813Z,25.04
2023-05-17T09:51:44.855Z,25.07
2023-05-17T09:52:44.876Z,25.09
2023-05-17T09:53:44.904Z,25.10
2023-05-17T09:54:44.939Z,25.11
2023-05-17T09:55:44.958Z,25.13
2023-05-17T09:56:45.017Z,25.13
2023-05-17T09:57:45.053Z,25.13
2023-05-17T09:58:45.081Z,25.13
2023-05-17T09:59:45.106Z,25.15
2023-05-17T10:00:45.416Z,25.18
2023-05-17T10:01:45.631Z,25.20
2023-05-17T10:02:45.247Z,25.21
2023-05-17T10:03:45.268Z,25.25
2023-05-17T10:04:45.273Z,25.24
2023-05-17T10:05:45.301Z,25.28
2023-05-17T10:06:49.771Z,25.31
2023-05-17T10:07:46.337Z,25.34
2023-05-17T10:08:45.310Z,25.37
2023-05-17T10:09:45.307Z,25.38
2023-05-17T10:10:45.286Z,25.40
2023-05-17T10:11:45.275Z,25.40
2023-05-17T10:12:45.288Z,25.40
2023-05-17T10:13:45.267Z,25.44
2023-05-17T10:14:45.343Z,25.45
2023-05-17T10:15:45.248Z,25.42
2023-05-17T10:16:45.253Z,25.46
2023-05-17T10:17:45.809Z,25.48
2023-05-17T10:18:45.673Z,25.49
2023-05-17T10:19:45.341Z,25.48
2023-05-17T10:20:45.219Z,25.49
2023-05-17T10:21:45.227Z,25.48
2023-05-17T10:22:45.216Z,25.53
2023-05-17T10:23:45.588Z,25.52
2023-05-17T10:24:45.206Z,25.52
2023-05-17T10:25:45.178Z,25.53
2023-05-17T10:26:45.184Z,25.53
2023-05-17T10:27:45.177Z,25.57
2023-05-17T10:28:45.185Z,25.57
2023-05-17T10:29:47.669Z,25.57
2023-05-17T10:30:45.162Z,25.55
2023-05-17T10:31:45.127Z,25.57
2023-05-17T10:32:45.219Z,25.57
2023-05-17T10:33:45.224Z,25.55
2023-05-17T10:34:47.491Z,25.55
2023-05-17T10:35:46.096Z,25.58
2023-05-17T10:36:45.126Z,25.57
2023-05-17T10:37:45.082Z,25.55
2023-05-17T10:38:45.108Z,25.57
2023-05-17T10:39:45.087Z,25.58
2023-05-17T10:40:45.084Z,25.58
2023-05-17T10:41:45.069Z,25.55
2023-05-17T10:42:45.073Z,25.53
2023-05-17T10:43:45.054Z,25.58
2023-05-17T10:44:45.054Z,25.57
2023-05-17T10:45:45.035Z,25.57
2023-05-17T10:46:45.019Z,25.57
2023-05-17T10:47:45.034Z,25.57
2023-05-17T10:48:45.086Z,25.57
2023-05-17T10:49:45.009Z,25.55
2023-05-17T10:50:54.384Z,25.55
2023-05-17T10:51:46.010Z,25.55
2023-05-17T10:52:44.986Z,25.57
2023-05-17T10:53:44.980Z,25.57
2023-05-17T10:54:45.125Z,25.58
2023-05-17T10:55:44.946Z,25.57
2023-05-17T10:56:44.975Z,25.58
2023-05-17T10:57:50.940Z,25.57
2023-05-17T10:58:45.934Z,25.59
2023-05-17T10:59:44.957Z,25.58
2023-05-17T11:00:44.904Z,25.58
2023-05-17T11:01:44.904Z,25.62
2023-05-17T11:02:44.963Z,25.59
2023-05-17T11:03:44.906Z,25.59
2023-05-17T11:04:44.982Z,25.59
2023-05-17T11:05:44.935Z,25.58
2023-05-17T11:06:44.969Z,25.59
2023-05-17T11:07:45.077Z,25.59
2023-05-17T11:08:45.086Z,25.57
2023-05-17T11:09:44.979Z,25.61
2023-05-17T11:10:44.854Z,25.58
2023-05-17T11:11:44.851Z,25.58
2023-05-17T11:12:44.882Z,25.55
2023-05-17T11:13:44.845Z,25.59
2023-05-17T11:14:44.826Z,25.55
2023-05-17T11:15:44.836Z,25.55
2023-05-17T11:16:44.822Z,25.58
2023-05-17T11:17:44.886Z,25.57
2023-05-17T11:18:45.194Z,25.58
2023-05-17T11:19:44.852Z,25.61
2023-05-17T11:20:44.948Z,25.59
2023-05-17T11:21:44.777Z,25.59
2023-05-17T11:22:44.760Z,25.62
2023-05-17T11:23:44.781Z,25.59
2023-05-17T11:24:44.744Z,25.62
2023-05-17T11:25:44.751Z,25.64
2023-05-17T11:26:44.732Z,25.61
2023-05-17T11:27:44.728Z,25.62
2023-05-17T11:28:44.753Z,25.61
2023-05-17T11:29:44.757Z,25.62
2023-05-17T11:30:44.749Z,25.64
2023-05-17T11:31:44.754Z,25.64
2023-05-17T11:32:44.816Z,25.64
2023-05-17T11:33:44.919Z,25.64
2023-05-17T11:34:44.814Z,25.64
2023-05-17T11:35:44.807Z,25.65
2023-05-17T11:36:44.825Z,25.65
2023-05-17T11:37:44.847Z,25.65
2023-05-17T11:38:45.462Z,25.64
2023-05-17T11:39:44.843Z,25.65
2023-05-17T11:40:44.859Z,25.64
2023-05-17T11:41:44.878Z,25.66
2023-05-17T11:42:44.884Z,25.65
2023-05-17T11:43:44.881Z,25.65
2023-05-17T11:44:44.940Z,25.64
2023-05-17T11:45:44.911Z,25.65
2023-05-17T11:46:44.909Z,25.61
2023-05-17T11:47:44.988Z,25.61
2023-05-17T11:48:45.002Z,25.61
2023-05-17T11:49:44.958Z,25.61
2023-05-17T11:50:44.957Z,25.64
2023-05-17T11:51:44.989Z,25.61
2023-05-17T11:52:45.015Z,25.61
2023-05-17T11:53:45.000Z,25.58
2023-05-17T11:54:45.064Z,25.59
2023-05-17T11:55:45.015Z,25.61
2023-05-17T11:56:45.057Z,25.58
2023-05-17T11:57:45.077Z,25.55
2023-05-17T11:58:45.091Z,25.58
2023-05-17T11:59:45.120Z,25.58
2023-05-17T12:00:45.119Z,25.59
2023-05-17T12:01:45.167Z,25.58
2023-05-17T12:02:45.173Z,25.55
2023-05-17T12:03:45.605Z,25.57
2023-05-17T12:04:45.219Z,25.53
2023-05-17T12:05:45.153Z,25.55
2023-05-17T12:06:45.359Z,25.55
2023-05-17T12:07:45.181Z,25.53
2023-05-17T12:08:45.210Z,25.52
2023-05-17T12:09:45.225Z,25.55
2023-05-17T12:10:45.262Z,25.53
2023-05-17T12:11:45.259Z,25.51
2023-05-17T12:12:45.267Z,25.52
2023-05-17T12:13:45.287Z,25.49
2023-05-17T12:14:45.291Z,25.53
2023-05-17T12:15:45.317Z,25.51
2023-05-17T12:16:45.331Z,25.51
2023-05-17T12:17:45.488Z,25.51
2023-05-17T12:18:45.528Z,25.53
2023-05-17T12:19:45.548Z,25.49
2023-05-17T12:20:45.396Z,25.48
2023-05-17T12:21:45.398Z,25.51
2023-05-17T12:22:45.446Z,25.48
2023-05-17T12:23:45.459Z,25.46
2023-05-17T12:24:45.499Z,25.46
2023-05-17T12:25:45.489Z,25.46
2023-05-17T12:26:45.494Z,25.45
2023-05-17T12:27:45.532Z,25.48
2023-05-17T12:28:45.574Z,25.44
2023-05-17T12:29:45.582Z,25.45
2023-05-17T12:30:45.572Z,25.45
2023-05-17T12:31:45.586Z,25.45
2023-05-17T12:32:45.681Z,25.42
2023-05-17T12:33:45.731Z,25.44
2023-05-17T12:34:45.635Z,25.44
2023-05-17T12:35:45.671Z,25.42
2023-05-17T12:36:45.733Z,25.42
2023-05-17T12:37:45.706Z,25.44
2023-05-17T12:38:45.772Z,25.42
2023-05-17T12:39:45.738Z,25.41
2023-05-17T12:40:45.777Z,25.42
2023-05-17T12:41:45.761Z,25.40
2023-05-17T12:42:45.800Z,25.44
2023-05-17T12:43:45.850Z,25.42
2023-05-17T12:44:45.860Z,25.44
2023-05-17T12:45:45.927Z,25.40
2023-05-17T12:46:45.897Z,25.41
2023-05-17T12:47:45.924Z,25.41
2023-05-17T12:48:46.009Z,25.42
2023-05-17T12:49:45.932Z,25.42
2023-05-17T12:50:45.920Z,25.40
2023-05-17T12:51:45.957Z,25.40
2023-05-17T12:52:45.966Z,25.41